createdAt,value
2023-04-07T00:01:18.045Z,7.29
2023-04-07T00:03:45.976Z,7.31
2023-04-07T00:06:14.391Z,7.31
2023-04-07T00:08:42.665Z,7.33
2023-04-07T00:11:10.682Z,7.35
2023-04-07T00:13:38.506Z,7.37
2023-04-07T00:16:06.657Z,7.37
2023-04-07T00:18:34.643Z,7.36
2023-04-07T00:21:02.533Z,7.36
2023-04-07T00:23:30.548Z,7.43
2023-04-07T00:25:58.571Z,7.46
2023-04-07T00:28:26.598Z,7.50
2023-04-07T00:30:54.487Z,7.52
2023-04-07T00:33:22.446Z,7.53
2023-04-07T00:35:50.320Z,7.53
2023-04-07T00:38:18.507Z,7.53
2023-04-07T00:40:46.384Z,7.52
2023-04-07T00:43:14.224Z,7.54
2023-04-07T00:45:42.420Z,7.53
2023-04-07T00:48:11.914Z,7.37
2023-04-07T00:50:39.861Z,7.32
2023-04-07T00:53:08.284Z,7.32
2023-04-07T00:55:36.417Z,7.33
2023-04-07T00:58:06.365Z,7.33
2023-04-07T01:00:43.690Z,7.36
2023-04-07T01:03:19.601Z,7.38
2023-04-07T01:06:01.122Z,7.38
2023-04-07T01:08:39.881Z,7.42
2023-04-07T01:11:11.268Z,7.43
2023-04-07T01:13:45.259Z,7.43
2023-04-07T01:16:21.009Z,7.43
2023-04-07T01:18:53.531Z,7.43
2023-04-07T01:21:23.649Z,7.41
2023-04-07T01:24:09.469Z,7.39
2023-04-07T01:26:38.194Z,7.35
2023-04-07T01:29:27.126Z,7.37
2023-04-07T01:31:59.638Z,7.38
2023-04-07T01:34:28.949Z,7.37
2023-04-07T01:36:58.701Z,7.36
2023-04-07T01:39:28.900Z,7.37
2023-04-07T01:41:59.145Z,7.34
2023-04-07T01:44:28.825Z,7.33
2023-04-07T01:46:57.875Z,7.31
2023-04-07T01:49:28.636Z,7.31
2023-04-07T01:51:57.056Z,7.26
2023-04-07T01:54:25.667Z,7.28
2023-04-07T01:56:53.664Z,7.26
2023-04-07T01:59:21.550Z,7.25
2023-04-07T02:01:49.793Z,7.23
2023-04-07T02:04:27.149Z,7.21
2023-04-07T02:07:00.772Z,7.19
2023-04-07T02:09:32.972Z,7.19
2023-04-07T02:12:03.467Z,7.16
2023-04-07T02:14:31.331Z,7.16
2023-04-07T02:17:01.768Z,7.17
2023-04-07T02:19:31.694Z,7.17
2023-04-07T02:22:00.528Z,7.18
2023-04-07T02:24:28.404Z,7.18
2023-04-07T02:26:56.276Z,7.15
2023-04-07T02:29:24.275Z,7.16
2023-04-07T02:31:52.452Z,7.16
2023-04-07T02:34:20.370Z,7.14
2023-04-07T02:36:48.285Z,7.14
2023-04-07T02:39:16.178Z,7.15
2023-04-07T02:41:44.189Z,7.11
2023-04-07T02:44:12.270Z,7.11
2023-04-07T02:46:40.067Z,7.14
2023-04-07T02:49:08.144Z,7.16
2023-04-07T02:51:36.057Z,7.18
2023-04-07T02:54:03.957Z,7.21
2023-04-07T02:56:32.725Z,7.24
2023-04-07T02:59:00.581Z,7.26
2023-04-07T03:01:29.333Z,7.26
2023-04-07T03:03:57.481Z,7.31
2023-04-07T03:06:25.535Z,7.31
2023-04-07T03:08:53.422Z,7.31
2023-04-07T03:11:21.335Z,7.31
2023-04-07T03:13:49.292Z,7.28
2023-04-07T03:16:17.245Z,7.25
2023-04-07T03:18:45.252Z,7.26
2023-04-07T03:21:13.202Z,7.28
2023-04-07T03:23:41.056Z,7.28
2023-04-07T03:26:08.912Z,7.29
2023-04-07T03:28:36.753Z,7.28
2023-04-07T03:31:05.127Z,7.26
2023-04-07T03:33:33.082Z,7.29
2023-04-07T03:36:00.999Z,7.28
2023-04-07T03:38:28.921Z,7.26
2023-04-07T03:40:56.895Z,7.26
2023-04-07T03:43:24.967Z,7.23
2023-04-07T03:45:55.358Z,7.21
2023-04-07T03:48:23.318Z,7.19
2023-04-07T03:50:51.328Z,7.16
2023-04-07T03:53:20.733Z,7.11
2023-04-07T03:55:49.860Z,7.07
2023-04-07T03:58:18.000Z,7.01
2023-04-07T04:00:45.911Z,6.97
2023-04-07T04:03:13.889Z,6.95
2023-04-07T04:05:42.214Z,6.92
2023-04-07T04:08:10.085Z,6.91
2023-04-07T04:10:37.969Z,6.89
2023-04-07T04:13:07.998Z,6.88
2023-04-07T04:15:35.911Z,6.86
2023-04-07T04:18:04.210Z,6.82
2023-04-07T04:20:32.108Z,6.82
2023-04-07T04:22:59.994Z,6.81
2023-04-07T04:25:28.032Z,6.83
2023-04-07T04:27:55.873Z,6.83
2023-04-07T04:30:23.992Z,6.83
2023-04-07T04:32:52.144Z,6.82
2023-04-07T04:35:20.227Z,6.80
2023-04-07T04:37:48.122Z,6.77
2023-04-07T04:40:16.452Z,6.76
2023-04-07T04:42:44.355Z,6.80
2023-04-07T04:45:12.490Z,6.82
2023-04-07T04:47:40.503Z,6.86
2023-04-07T04:50:09.183Z,6.87
2023-04-07T04:52:37.222Z,6.91
2023-04-07T04:55:05.359Z,6.91
2023-04-07T04:57:33.312Z,6.92
2023-04-07T05:00:01.272Z,6.93
2023-04-07T05:02:29.826Z,6.93
2023-04-07T05:04:57.946Z,6.95
2023-04-07T05:07:26.099Z,6.95
2023-04-07T05:09:53.959Z,6.97
2023-04-07T05:12:23.200Z,7.01
2023-04-07T05:14:51.213Z,7.00
2023-04-07T05:17:19.104Z,6.93
2023-04-07T05:19:47.024Z,6.88
2023-04-07T05:22:14.885Z,6.82
2023-04-07T05:24:42.951Z,6.77
2023-04-07T05:27:10.904Z,6.72
2023-04-07T05:29:38.810Z,6.65
2023-04-07T05:32:07.262Z,6.63
2023-04-07T05:34:35.232Z,6.63
2023-04-07T05:37:03.078Z,6.62
2023-04-07T05:39:30.966Z,6.62
2023-04-07T05:41:59.463Z,6.64
2023-04-07T05:44:27.647Z,6.64
2023-04-07T05:46:55.555Z,6.61
2023-04-07T05:49:23.494Z,6.60
2023-04-07T05:51:51.545Z,6.57
2023-04-07T05:54:19.445Z,6.56
2023-04-07T05:56:47.467Z,6.54
2023-04-07T05:59:15.433Z,6.54
2023-04-07T06:01:44.311Z,6.53
2023-04-07T06:04:12.414Z,6.46
2023-04-07T06:06:40.256Z,6.40
2023-04-07T06:09:08.365Z,6.37
2023-04-07T06:11:36.292Z,6.42
2023-04-07T06:14:04.176Z,6.46
2023-04-07T06:16:32.215Z,6.52
2023-04-07T06:19:00.061Z,6.62
2023-04-07T06:21:28.660Z,6.73
2023-04-07T06:23:56.604Z,6.82
2023-04-07T06:26:25.047Z,6.91
2023-04-07T06:28:53.821Z,7.01
2023-04-07T06:31:22.419Z,7.10
2023-04-07T06:33:50.571Z,7.23
2023-04-07T06:36:18.846Z,7.36
2023-04-07T06:38:46.920Z,7.46
2023-04-07T06:41:18.477Z,7.55
2023-04-07T06:43:48.713Z,7.63
2023-04-07T06:46:16.872Z,7.71
2023-04-07T06:48:45.040Z,7.78
2023-04-07T06:51:13.015Z,7.85
2023-04-07T06:53:41.518Z,7.91
2023-04-07T06:56:14.137Z,7.96
2023-04-07T06:58:42.046Z,8.04
2023-04-07T07:01:10.063Z,8.08
2023-04-07T07:03:38.180Z,8.12
2023-04-07T07:06:06.935Z,8.26
2023-04-07T07:08:35.246Z,8.36
2023-04-07T07:11:03.332Z,8.50
2023-04-07T07:13:31.242Z,8.67
2023-04-07T07:15:59.198Z,8.85
2023-04-07T07:18:28.486Z,8.97
2023-04-07T07:20:57.214Z,9.08
2023-04-07T07:23:25.164Z,9.16
2023-04-07T07:25:53.157Z,9.21
2023-04-07T07:28:22.972Z,9.25
2023-04-07T07:30:51.241Z,9.30
2023-04-07T07:33:19.258Z,9.37
2023-04-07T07:35:47.191Z,9.40
2023-04-07T07:38:15.172Z,9.42
2023-04-07T07:40:43.014Z,9.49
2023-04-07T07:43:10.859Z,10.24
2023-04-07T07:45:38.798Z,10.33
2023-04-07T07:48:06.779Z,10.33
2023-04-07T07:50:34.789Z,10.56
2023-04-07T07:53:02.827Z,10.81
2023-04-07T07:55:30.786Z,10.93
2023-04-07T07:57:58.881Z,10.93
2023-04-07T08:00:26.956Z,10.87
2023-04-07T08:02:55.036Z,10.83
2023-04-07T08:05:23.111Z,10.77
2023-04-07T08:07:52.767Z,10.78
2023-04-07T08:10:22.296Z,10.74
2023-04-07T08:12:50.229Z,10.77
2023-04-07T08:15:18.317Z,10.73
2023-04-07T08:17:46.341Z,10.77
2023-04-07T08:20:14.464Z,10.78
2023-04-07T08:22:42.694Z,10.78
2023-04-07T08:25:10.613Z,10.81
2023-04-07T08:27:38.447Z,10.80
2023-04-07T08:30:08.386Z,10.80
2023-04-07T08:32:46.417Z,10.85
2023-04-07T08:35:14.405Z,10.89
2023-04-07T08:37:44.990Z,10.96
2023-04-07T08:40:14.040Z,11.05
2023-04-07T08:42:44.468Z,11.08
2023-04-07T08:45:13.928Z,11.10
2023-04-07T08:47:45.386Z,11.10
2023-04-07T08:50:13.631Z,11.12
2023-04-07T08:52:45.851Z,11.15
2023-04-07T08:55:14.567Z,11.16
2023-04-07T08:57:45.981Z,11.17
2023-04-07T09:00:15.134Z,11.20
2023-04-07T09:02:46.666Z,11.26
2023-04-07T09:05:18.275Z,11.30
2023-04-07T09:07:46.268Z,11.36
2023-04-07T09:10:14.222Z,11.35
2023-04-07T09:12:42.490Z,11.33
2023-04-07T09:15:10.710Z,11.39
2023-04-07T09:17:38.705Z,11.44
2023-04-07T09:20:08.249Z,11.44
2023-04-07T09:22:41.554Z,11.49
2023-04-07T09:25:15.653Z,11.33
2023-04-07T09:28:05.434Z,11.20
2023-04-07T09:30:34.855Z,11.09
2023-04-07T09:33:03.649Z,11.01
2023-04-07T09:35:31.999Z,10.94
2023-04-07T09:38:10.422Z,10.89
2023-04-07T09:40:41.268Z,10.84
2023-04-07T09:43:17.063Z,10.81
2023-04-07T09:45:45.067Z,10.82
2023-04-07T09:48:23.191Z,10.85
2023-04-07T09:50:52.378Z,10.83
2023-04-07T09:53:24.510Z,10.85
2023-04-07T09:55:53.349Z,10.70
2023-04-07T09:58:21.889Z,10.63
2023-04-07T10:00:50.636Z,10.61
2023-04-07T10:03:19.228Z,10.59
2023-04-07T10:05:48.284Z,10.62
2023-04-07T10:08:16.653Z,10.68
2023-04-07T10:10:45.801Z,10.73
2023-04-07T10:13:14.470Z,10.78
2023-04-07T10:15:42.971Z,10.85
2023-04-07T10:18:11.260Z,10.88
2023-04-07T10:20:45.589Z,10.89
2023-04-07T10:23:30.229Z,10.93
2023-04-07T10:25:59.709Z,10.98
2023-04-07T10:28:29.970Z,10.94
2023-04-07T10:30:59.311Z,10.94
2023-04-07T10:33:53.190Z,10.94
2023-04-07T10:36:22.950Z,10.97
2023-04-07T10:39:10.747Z,10.93
2023-04-07T10:41:42.757Z,11.04
2023-04-07T10:44:32.588Z,11.12
2023-04-07T10:47:06.074Z,11.24
2023-04-07T10:49:37.267Z,11.39
2023-04-07T10:52:14.468Z,11.47
2023-04-07T10:54:42.905Z,11.53
2023-04-07T10:57:14.330Z,11.62
2023-04-07T11:00:13.291Z,11.64
2023-04-07T11:02:41.491Z,11.75
2023-04-07T11:05:10.111Z,11.89
2023-04-07T11:08:08.148Z,11.97
2023-04-07T11:10:39.780Z,12.07
2023-04-07T11:13:11.726Z,12.16
2023-04-07T11:15:41.015Z,12.18
2023-04-07T11:18:21.361Z,12.20
2023-04-07T11:20:54.752Z,12.25
2023-04-07T11:23:25.421Z,12.35
2023-04-07T11:25:55.939Z,12.31
2023-04-07T11:28:24.054Z,12.38
2023-04-07T11:30:54.140Z,12.41
2023-04-07T11:33:24.396Z,12.52
2023-04-07T11:35:55.213Z,12.49
2023-04-07T11:38:25.384Z,12.51
2023-04-07T11:40:53.398Z,12.55
2023-04-07T11:43:27.090Z,12.60
2023-04-07T11:46:18.725Z,12.63
2023-04-07T11:48:48.733Z,12.61
2023-04-07T11:51:19.686Z,12.62
2023-04-07T11:53:48.601Z,12.63
2023-04-07T11:56:19.111Z,12.56
2023-04-07T11:58:54.730Z,12.52
2023-04-07T12:01:23.635Z,12.47
2023-04-07T12:04:04.318Z,12.55
2023-04-07T12:06:39.824Z,12.56
2023-04-07T12:09:07.795Z,12.60
2023-04-07T12:11:37.417Z,12.64
2023-04-07T12:14:06.598Z,12.55
2023-04-07T12:16:40.132Z,12.59
2023-04-07T12:19:08.200Z,12.56
2023-04-07T12:21:36.098Z,12.52
2023-04-07T12:24:04.106Z,12.52
2023-04-07T12:26:32.007Z,12.63
2023-04-07T12:29:06.392Z,12.67
2023-04-07T12:31:34.643Z,12.73
2023-04-07T12:34:02.623Z,12.74
2023-04-07T12:36:30.978Z,12.75
2023-04-07T12:38:58.973Z,12.79
2023-04-07T12:41:27.302Z,12.76
2023-04-07T12:43:55.550Z,12.77
2023-04-07T12:46:23.956Z,12.75
2023-04-07T12:48:52.799Z,12.68
2023-04-07T12:51:20.995Z,12.63
2023-04-07T12:53:49.806Z,12.58
2023-04-07T12:56:17.996Z,12.57
2023-04-07T12:58:46.058Z,12.44
2023-04-07T13:01:14.011Z,12.40
2023-04-07T13:03:42.455Z,12.33
2023-04-07T13:06:12.056Z,12.25
2023-04-07T13:08:40.687Z,12.14
2023-04-07T13:11:08.741Z,12.08
2023-04-07T13:13:36.915Z,12.14
2023-04-07T13:16:04.893Z,12.04
2023-04-07T13:18:32.930Z,12.09
2023-04-07T13:23:53.876Z,11.99
2023-04-07T13:26:19.898Z,12.02
2023-04-07T13:28:49.281Z,11.95
2023-04-07T13:31:17.533Z,11.92
2023-04-07T13:33:46.858Z,11.90
2023-04-07T13:36:15.050Z,11.88
2023-04-07T13:38:43.853Z,11.84
2023-04-07T13:41:11.772Z,11.84
2023-04-07T13:43:39.837Z,11.77
2023-04-07T13:46:17.221Z,11.62
2023-04-07T13:48:53.157Z,11.65
2023-04-07T13:51:21.276Z,11.65
2023-04-07T13:53:49.183Z,11.58
2023-04-07T13:56:17.200Z,11.53
2023-04-07T13:58:45.280Z,11.47
2023-04-07T14:01:13.383Z,11.35
2023-04-07T14:03:41.444Z,11.18
2023-04-07T14:06:09.581Z,11.13
2023-04-07T14:08:37.494Z,11.03
2023-04-07T14:11:05.381Z,10.89
2023-04-07T14:13:33.587Z,10.92
2023-04-07T14:16:01.619Z,11.00
2023-04-07T14:18:29.740Z,11.01
2023-04-07T14:20:57.758Z,11.09
2023-04-07T14:23:36.633Z,11.18
2023-04-07T14:26:05.053Z,11.12
2023-04-07T14:28:33.105Z,11.09
2023-04-07T14:31:01.128Z,11.13
2023-04-07T14:33:29.065Z,11.12
2023-04-07T14:35:56.916Z,11.19
2023-04-07T14:38:26.998Z,11.21
2023-04-07T14:40:55.102Z,11.26
2023-04-07T14:43:23.017Z,11.34
2023-04-07T14:45:50.922Z,11.40
2023-04-07T14:48:18.920Z,11.43
2023-04-07T14:50:47.759Z,11.47
2023-04-07T14:53:18.567Z,11.59
2023-04-07T14:55:46.421Z,11.67
2023-04-07T14:58:14.294Z,11.75
2023-04-07T15:00:42.311Z,11.83
2023-04-07T15:03:10.800Z,11.76
2023-04-07T15:05:38.933Z,11.74
2023-04-07T15:08:06.911Z,11.69
2023-04-07T15:10:36.795Z,11.59
2023-04-07T15:13:04.927Z,11.60
2023-04-07T15:15:33.043Z,11.64
2023-04-07T15:18:00.960Z,11.67
2023-04-07T15:20:28.837Z,11.70
2023-04-07T15:22:57.144Z,11.70
2023-04-07T15:25:25.226Z,11.72
2023-04-07T15:27:53.203Z,11.72
2023-04-07T15:30:21.239Z,11.76
2023-04-07T15:33:02.177Z,11.73
2023-04-07T15:35:30.125Z,11.66
2023-04-07T15:37:58.088Z,11.54
2023-04-07T15:40:26.022Z,11.48
2023-04-07T15:42:53.985Z,11.35
2023-04-07T15:45:22.214Z,11.26
2023-04-07T15:47:50.214Z,11.23
2023-04-07T15:50:18.198Z,11.17
2023-04-07T15:52:46.610Z,11.09
2023-04-07T15:55:14.512Z,11.03
2023-04-07T15:57:42.512Z,11.07
2023-04-07T16:00:10.893Z,10.99
2023-04-07T16:02:39.530Z,10.93
2023-04-07T16:05:07.689Z,10.92
2023-04-07T16:07:35.614Z,10.85
2023-04-07T16:10:04.276Z,10.81
2023-04-07T16:12:33.846Z,10.81
2023-04-07T16:15:02.179Z,10.77
2023-04-07T16:17:30.157Z,10.72
2023-04-07T16:19:58.133Z,10.65
2023-04-07T16:22:26.606Z,10.63
2023-04-07T16:24:54.596Z,10.57
2023-04-07T16:27:22.490Z,10.49
2023-04-07T16:29:50.423Z,10.46
2023-04-07T16:32:18.275Z,10.36
2023-04-07T16:34:46.224Z,10.26
2023-04-07T16:37:14.233Z,10.22
2023-04-07T16:39:42.141Z,10.07
2023-04-07T16:42:10.010Z,10.04
2023-04-07T16:44:37.956Z,9.98
2023-04-07T16:47:05.904Z,9.93
2023-04-07T16:49:33.801Z,9.87
2023-04-07T16:52:01.798Z,9.83
2023-04-07T16:54:29.757Z,9.80
2023-04-07T16:56:57.607Z,9.73
2023-04-07T16:59:25.468Z,9.66
2023-04-07T17:01:53.339Z,9.61
2023-04-07T17:04:21.379Z,9.60
2023-04-07T17:06:49.321Z,9.57
2023-04-07T17:09:18.960Z,9.49
2023-04-07T17:11:47.014Z,9.44
2023-04-07T17:14:14.968Z,9.42
2023-04-07T17:16:42.864Z,9.37
2023-04-07T17:19:10.704Z,9.32
2023-04-07T17:21:39.030Z,9.29
2023-04-07T17:24:07.689Z,9.28
2023-04-07T17:26:35.604Z,9.25
2023-04-07T17:29:03.488Z,9.21
2023-04-07T17:31:31.403Z,9.18
2023-04-07T17:33:59.285Z,9.14
2023-04-07T17:36:27.105Z,9.15
2023-04-07T17:38:55.057Z,9.10
2023-04-07T17:41:24.080Z,9.03
2023-04-07T17:43:52.034Z,8.94
2023-04-07T17:46:20.080Z,8.89
2023-04-07T17:48:48.312Z,8.82
2023-04-07T17:51:16.813Z,8.79
2023-04-07T17:53:44.964Z,8.69
2023-04-07T17:56:13.919Z,8.62
2023-04-07T17:58:43.513Z,8.55
2023-04-07T18:01:12.340Z,8.48
2023-04-07T18:03:40.467Z,8.43
2023-04-07T18:06:09.880Z,8.37
2023-04-07T18:08:38.019Z,8.32
2023-04-07T18:11:07.193Z,8.29
2023-04-07T18:13:35.218Z,8.30
2023-04-07T18:16:03.143Z,8.28
2023-04-07T18:18:31.052Z,8.26
2023-04-07T18:20:59.168Z,8.22
2023-04-07T18:23:27.112Z,8.23
2023-04-07T18:25:54.966Z,8.18
2023-04-07T18:28:22.884Z,8.14
2023-04-07T18:30:50.766Z,8.12
2023-04-07T18:33:18.804Z,8.07
2023-04-07T18:35:46.741Z,8.01
2023-04-07T18:38:14.584Z,7.98
2023-04-07T18:40:42.525Z,7.96
2023-04-07T18:43:10.516Z,7.98
2023-04-07T18:45:38.350Z,7.95
2023-04-07T18:48:07.033Z,7.95
2023-04-07T18:50:34.958Z,7.92
2023-04-07T18:53:03.250Z,7.95
2023-04-07T18:55:31.292Z,7.90
2023-04-07T18:57:59.767Z,7.89
2023-04-07T19:00:27.940Z,7.88
2023-04-07T19:02:56.097Z,7.84
2023-04-07T19:05:25.797Z,7.79
2023-04-07T19:07:53.965Z,7.79
2023-04-07T19:10:22.123Z,7.77
2023-04-07T19:12:50.156Z,7.79
2023-04-07T19:15:18.209Z,7.79
2023-04-07T19:17:46.743Z,7.79
2023-04-07T19:20:14.764Z,7.79
2023-04-07T19:22:43.339Z,7.79
2023-04-07T19:25:11.819Z,7.79
2023-04-07T19:27:41.114Z,7.77
2023-04-07T19:30:09.521Z,7.75
2023-04-07T19:32:37.823Z,7.73
2023-04-07T19:35:06.056Z,7.72
2023-04-07T19:37:34.264Z,7.72
2023-04-07T19:40:03.559Z,7.73
2023-04-07T19:42:31.968Z,7.73
2023-04-07T19:45:02.638Z,7.76
2023-04-07T19:47:30.790Z,7.79
2023-04-07T19:49:58.921Z,7.79
2023-04-07T19:52:27.261Z,7.79
2023-04-07T19:54:55.308Z,7.79
2023-04-07T19:57:23.972Z,7.80
2023-04-07T19:59:52.284Z,7.79
2023-04-07T20:02:20.544Z,7.79
2023-04-07T20:04:48.668Z,7.81
2023-04-07T20:07:16.947Z,7.80
2023-04-07T20:09:45.222Z,7.79
2023-04-07T20:12:13.240Z,7.82
2023-04-07T20:14:41.227Z,7.82
2023-04-07T20:17:09.192Z,7.84
2023-04-07T20:19:38.169Z,7.85
2023-04-07T20:22:06.106Z,7.88
2023-04-07T20:24:37.039Z,7.88
2023-04-07T20:27:05.147Z,7.86
2023-04-07T20:29:33.187Z,7.88
2023-04-07T20:32:01.152Z,7.87
2023-04-07T20:34:29.151Z,7.88
2023-04-07T20:36:57.215Z,7.88
2023-04-07T20:39:25.139Z,7.89
2023-04-07T20:41:52.953Z,7.89
2023-04-07T20:44:21.384Z,7.92
2023-04-07T20:46:49.405Z,7.91
2023-04-07T20:49:17.477Z,7.92
2023-04-07T20:51:46.031Z,7.92
2023-04-07T20:54:14.186Z,7.90
2023-04-07T20:56:44.298Z,7.90
2023-04-07T20:59:12.378Z,7.87
2023-04-07T21:01:40.419Z,7.87
2023-04-07T21:04:08.476Z,7.85
2023-04-07T21:06:36.833Z,7.85
2023-04-07T21:09:06.986Z,7.82
2023-04-07T21:11:34.955Z,7.79
2023-04-07T21:14:03.173Z,7.74
2023-04-07T21:16:31.937Z,7.73
2023-04-07T21:18:59.899Z,7.72
2023-04-07T21:21:27.961Z,7.70
2023-04-07T21:23:55.938Z,7.68
2023-04-07T21:26:24.063Z,7.65
2023-04-07T21:28:53.540Z,7.63
2023-04-07T21:31:23.755Z,7.65
2023-04-07T21:33:52.764Z,7.65
2023-04-07T21:36:20.752Z,7.67
2023-04-07T21:38:49.893Z,7.66
2023-04-07T21:41:18.261Z,7.67
2023-04-07T21:43:46.224Z,7.68
2023-04-07T21:46:15.590Z,7.65
2023-04-07T21:48:43.816Z,7.66
2023-04-07T21:51:12.636Z,7.69
2023-04-07T21:53:41.805Z,7.64
2023-04-07T21:56:10.794Z,7.63
2023-04-07T21:58:38.763Z,7.61
2023-04-07T22:01:07.197Z,7.58
2023-04-07T22:03:35.246Z,7.56
2023-04-07T22:06:03.780Z,7.53
2023-04-07T22:08:31.828Z,7.50
2023-04-07T22:10:59.950Z,7.46
2023-04-07T22:13:27.830Z,7.43
2023-04-07T22:15:57.014Z,7.42
2023-04-07T22:18:24.998Z,7.38
2023-04-07T22:20:52.934Z,7.37
2023-04-07T22:23:20.887Z,7.36
2023-04-07T22:25:48.808Z,7.40
2023-04-07T22:28:16.823Z,7.41
2023-04-07T22:30:44.705Z,7.45
2023-04-07T22:33:12.746Z,7.50
2023-04-07T22:35:40.703Z,7.52
2023-04-07T22:38:08.745Z,7.57
2023-04-07T22:40:36.734Z,7.58
2023-04-07T22:43:04.611Z,7.60
2023-04-07T22:45:32.957Z,7.63
2023-04-07T22:48:00.865Z,7.64
2023-04-07T22:50:29.006Z,7.63
2023-04-07T22:52:57.279Z,7.60
2023-04-07T22:55:25.214Z,7.56
2023-04-07T22:57:53.182Z,7.54
2023-04-07T23:00:21.108Z,7.53
2023-04-07T23:02:49.185Z,7.53
2023-04-07T23:05:17.648Z,7.52
2023-04-07T23:07:45.777Z,7.54
2023-04-07T23:10:13.708Z,7.56
2023-04-07T23:12:41.867Z,7.59
2023-04-07T23:15:10.146Z,7.62
2023-04-07T23:17:38.144Z,7.61
2023-04-07T23:20:06.595Z,7.63
2023-04-07T23:22:34.562Z,7.68
2023-04-07T23:25:02.720Z,7.71
2023-04-07T23:27:30.701Z,7.73
2023-04-07T23:29:59.466Z,7.73
2023-04-07T23:32:27.452Z,7.72
2023-04-07T23:34:55.561Z,7.71
2023-04-07T23:37:23.507Z,7.68
2023-04-07T23:39:51.702Z,7.68
2023-04-07T23:42:19.740Z,7.66
2023-04-07T23:44:47.801Z,7.67
2023-04-07T23:47:15.754Z,7.64
2023-04-07T23:49:43.940Z,7.63
2023-04-07T23:52:11.885Z,7.66
2023-04-07T23:54:39.871Z,7.67
2023-04-07T23:57:08.072Z,7.67
2023-04-07T23:59:36.021Z,7.67
